createdAt,value
2023-03-17T00:01:23.432Z,94.00
2023-03-17T00:03:50.471Z,93.60
2023-03-17T00:06:24.884Z,93.50
2023-03-17T00:08:51.603Z,93.20
2023-03-17T00:11:19.192Z,93.60
2023-03-17T00:13:46.306Z,93.80
2023-03-17T00:16:25.288Z,94.00
2023-03-17T00:18:53.806Z,93.70
2023-03-17T00:21:30.603Z,93.90
2023-03-17T00:23:59.124Z,93.80
2023-03-17T00:26:26.687Z,94.10
2023-03-17T00:28:54.768Z,94.10
2023-03-17T00:31:29.396Z,94.10
2023-03-17T00:33:58.404Z,94.00
2023-03-17T00:36:28.357Z,94.30
2023-03-17T00:38:55.745Z,94.40
2023-03-17T00:41:23.535Z,94.60
2023-03-17T00:43:53.479Z,94.50
2023-03-17T00:46:28.407Z,94.80
2023-03-17T00:48:55.430Z,94.50
2023-03-17T00:51:25.504Z,94.70
2023-03-17T00:53:52.734Z,94.80
2023-03-17T00:56:20.814Z,94.80
2023-03-17T00:58:48.848Z,94.80
2023-03-17T01:01:16.157Z,95.20
2023-03-17T01:03:42.930Z,95.40
2023-03-17T01:06:12.896Z,95.40
2023-03-17T01:08:40.961Z,95.30
2023-03-17T01:11:19.081Z,95.20
2023-03-17T01:13:46.894Z,95.80
2023-03-17T01:16:14.286Z,95.80
2023-03-17T01:18:41.265Z,95.80
2023-03-17T01:21:08.439Z,96.00
2023-03-17T01:23:35.319Z,96.00
2023-03-17T01:26:02.014Z,96.10
2023-03-17T01:28:28.905Z,96.10
2023-03-17T01:30:56.710Z,96.40
2023-03-17T01:33:23.374Z,96.60
2023-03-17T01:35:50.824Z,96.50
2023-03-17T01:38:17.695Z,96.60
2023-03-17T01:40:54.714Z,96.70
2023-03-17T01:43:29.645Z,96.80
2023-03-17T01:46:38.452Z,96.90
2023-03-17T01:49:27.455Z,97.20
2023-03-17T01:52:20.539Z,97.50
2023-03-17T01:55:10.510Z,97.40
2023-03-17T01:57:41.516Z,97.50
2023-03-17T02:00:11.605Z,98.00
2023-03-17T02:02:41.838Z,97.70
2023-03-17T02:05:12.543Z,98.00
2023-03-17T02:07:41.588Z,98.30
2023-03-17T02:10:09.732Z,98.50
2023-03-17T02:12:36.743Z,98.40
2023-03-17T02:15:03.634Z,99.00
2023-03-17T02:17:30.312Z,98.80
2023-03-17T02:19:56.976Z,98.80
2023-03-17T02:22:24.044Z,98.50
2023-03-17T02:24:57.415Z,98.80
2023-03-17T02:27:37.699Z,98.70
2023-03-17T02:30:08.542Z,98.70
2023-03-17T02:32:36.649Z,98.80
2023-03-17T02:35:04.950Z,99.00
2023-03-17T02:37:32.843Z,98.20
2023-03-17T02:40:01.639Z,98.80
2023-03-17T02:42:29.175Z,98.70
2023-03-17T02:44:55.825Z,99.00
2023-03-17T02:47:22.486Z,99.10
2023-03-17T02:49:49.540Z,98.90
2023-03-17T02:52:16.399Z,99.10
2023-03-17T02:54:43.254Z,99.00
2023-03-17T02:57:10.252Z,99.00
2023-03-17T02:59:37.610Z,99.50
2023-03-17T03:02:04.317Z,99.60
2023-03-17T03:04:31.457Z,99.60
2023-03-17T03:06:58.053Z,99.60
2023-03-17T03:09:25.667Z,99.70
2023-03-17T03:11:52.277Z,99.50
2023-03-17T03:14:18.906Z,99.60
2023-03-17T03:16:47.372Z,99.90
2023-03-17T03:19:14.048Z,99.90
2023-03-17T03:21:40.665Z,99.90
2023-03-17T03:24:07.532Z,99.90
2023-03-17T03:26:34.169Z,99.90
2023-03-17T03:29:01.352Z,99.90
2023-03-17T03:31:28.089Z,99.90
2023-03-17T03:33:54.903Z,99.90
2023-03-17T03:36:22.377Z,99.90
2023-03-17T03:38:49.295Z,99.90
2023-03-17T03:41:15.898Z,99.90
2023-03-17T03:43:42.467Z,99.90
2023-03-17T03:46:09.165Z,99.90
2023-03-17T03:48:35.903Z,99.90
2023-03-17T03:51:03.177Z,99.90
2023-03-17T03:53:30.295Z,99.90
2023-03-17T03:55:57.055Z,99.90
2023-03-17T03:58:23.667Z,99.90
2023-03-17T04:00:50.541Z,99.90
2023-03-17T04:03:17.247Z,99.90
2023-03-17T04:05:44.027Z,99.90
2023-03-17T04:08:11.324Z,99.90
2023-03-17T04:10:38.096Z,99.90
2023-03-17T04:13:04.776Z,99.90
2023-03-17T04:15:31.398Z,99.90
2023-03-17T04:17:58.150Z,99.90
2023-03-17T04:20:24.809Z,99.90
2023-03-17T04:22:51.768Z,99.90
2023-03-17T04:25:18.614Z,99.90
2023-03-17T04:27:45.241Z,99.90
2023-03-17T04:30:16.784Z,99.90
2023-03-17T04:32:44.112Z,99.90
2023-03-17T04:35:19.482Z,99.90
2023-03-17T04:37:46.577Z,99.90
2023-03-17T04:40:14.190Z,99.90
2023-03-17T04:42:41.554Z,99.90
2023-03-17T04:45:11.210Z,99.90
2023-03-17T04:47:38.539Z,99.90
2023-03-17T04:50:08.034Z,99.90
2023-03-17T04:52:35.741Z,99.90
2023-03-17T04:55:02.470Z,99.90
2023-03-17T04:57:29.124Z,99.90
2023-03-17T04:59:55.838Z,99.90
2023-03-17T05:02:22.458Z,99.90
2023-03-17T05:04:49.355Z,99.90
2023-03-17T05:07:16.080Z,99.90
2023-03-17T05:09:42.979Z,99.90
2023-03-17T05:12:10.385Z,99.90
2023-03-17T05:14:37.714Z,99.90
2023-03-17T05:17:04.383Z,99.90
2023-03-17T05:19:31.048Z,99.90
2023-03-17T05:21:57.653Z,99.90
2023-03-17T05:24:24.267Z,99.90
2023-03-17T05:26:50.970Z,99.90
2023-03-17T05:29:17.615Z,99.90
2023-03-17T05:31:44.674Z,99.90
2023-03-17T05:34:11.312Z,99.90
2023-03-17T05:36:38.027Z,99.90
2023-03-17T05:39:05.080Z,99.90
2023-03-17T05:41:31.999Z,99.90
2023-03-17T05:43:58.690Z,99.90
2023-03-17T05:46:25.403Z,99.90
2023-03-17T05:48:52.337Z,99.90
2023-03-17T05:51:19.098Z,99.90
2023-03-17T05:53:45.897Z,99.90
2023-03-17T05:56:13.324Z,99.90
2023-03-17T05:58:39.964Z,99.90
2023-03-17T06:01:06.684Z,99.90
2023-03-17T06:03:33.440Z,99.90
2023-03-17T06:06:00.621Z,99.90
2023-03-17T06:08:27.197Z,99.90
2023-03-17T06:10:53.847Z,99.90
2023-03-17T06:13:20.667Z,99.90
2023-03-17T06:15:50.157Z,99.90
2023-03-17T06:18:16.917Z,99.90
2023-03-17T06:20:43.544Z,99.90
2023-03-17T06:23:10.429Z,99.90
2023-03-17T06:25:37.198Z,99.90
2023-03-17T06:28:05.433Z,99.90
2023-03-17T06:30:34.354Z,99.90
2023-03-17T06:33:02.361Z,99.90
2023-03-17T06:35:30.521Z,99.90
2023-03-17T06:37:57.933Z,99.90
2023-03-17T06:40:24.685Z,99.90
2023-03-17T06:42:51.549Z,99.90
2023-03-17T06:45:18.417Z,99.90
2023-03-17T06:47:45.089Z,99.90
2023-03-17T06:50:12.599Z,99.90
2023-03-17T06:52:39.819Z,99.90
2023-03-17T06:55:07.178Z,99.90
2023-03-17T06:57:34.016Z,99.90
2023-03-17T07:00:00.632Z,99.90
2023-03-17T07:02:27.370Z,99.90
2023-03-17T07:04:54.117Z,99.90
2023-03-17T07:07:21.113Z,99.90
2023-03-17T07:09:47.977Z,99.90
2023-03-17T07:12:14.862Z,97.30
2023-03-17T07:14:41.783Z,97.10
2023-03-17T07:17:12.351Z,98.40
2023-03-17T07:19:39.860Z,99.80
2023-03-17T07:22:07.218Z,99.90
2023-03-17T07:24:34.368Z,99.90
2023-03-17T07:27:01.010Z,99.90
2023-03-17T07:29:29.217Z,99.90
2023-03-17T07:31:56.034Z,99.90
2023-03-17T07:34:23.122Z,99.90
2023-03-17T07:36:49.849Z,99.90
2023-03-17T07:39:16.649Z,99.90
2023-03-17T07:41:44.187Z,99.90
2023-03-17T07:44:11.413Z,99.90
2023-03-17T07:46:38.966Z,99.90
2023-03-17T07:49:06.206Z,99.90
2023-03-17T07:51:33.071Z,99.90
2023-03-17T07:54:04.072Z,99.90
2023-03-17T07:56:32.513Z,99.90
2023-03-17T07:58:59.985Z,99.90
2023-03-17T08:01:28.050Z,99.90
2023-03-17T08:03:56.357Z,99.90
2023-03-17T08:06:25.443Z,99.90
2023-03-17T08:08:55.851Z,99.90
2023-03-17T08:11:23.360Z,99.90
2023-03-17T08:13:50.158Z,99.90
2023-03-17T08:16:17.245Z,99.90
2023-03-17T08:18:43.986Z,99.90
2023-03-17T08:21:10.827Z,99.90
2023-03-17T08:23:37.633Z,99.90
2023-03-17T08:26:05.060Z,99.90
2023-03-17T08:28:32.502Z,99.70
2023-03-17T08:31:13.553Z,99.70
2023-03-17T08:33:42.133Z,99.60
2023-03-17T08:36:09.901Z,99.40
2023-03-17T08:38:38.005Z,99.10
2023-03-17T08:41:06.719Z,98.80
2023-03-17T08:43:34.426Z,98.40
2023-03-17T08:46:18.851Z,99.00
2023-03-17T08:48:48.089Z,98.70
2023-03-17T08:51:18.596Z,98.40
2023-03-17T08:53:46.381Z,98.40
2023-03-17T08:56:14.070Z,98.30
2023-03-17T08:58:42.540Z,98.30
2023-03-17T09:01:10.766Z,98.30
2023-03-17T09:03:39.332Z,98.40
2023-03-17T09:06:07.556Z,98.20
2023-03-17T09:08:35.488Z,97.40
2023-03-17T09:11:05.353Z,97.20
2023-03-17T09:13:33.251Z,97.00
2023-03-17T09:16:01.324Z,97.00
2023-03-17T09:18:28.117Z,96.80
2023-03-17T09:20:54.780Z,96.60
2023-03-17T09:23:23.221Z,96.20
2023-03-17T09:25:49.886Z,95.60
2023-03-17T09:28:17.350Z,95.70
2023-03-17T09:30:44.712Z,95.30
2023-03-17T09:33:12.883Z,95.90
2023-03-17T09:35:41.025Z,96.00
2023-03-17T09:38:09.324Z,95.70
2023-03-17T09:41:20.037Z,95.40
2023-03-17T09:44:05.303Z,95.00
2023-03-17T09:47:07.270Z,94.70
2023-03-17T09:49:57.352Z,94.70
2023-03-17T09:52:36.930Z,95.00
2023-03-17T09:55:08.482Z,94.90
2023-03-17T09:57:36.970Z,95.60
2023-03-17T10:00:19.311Z,95.20
2023-03-17T10:02:46.209Z,94.80
2023-03-17T10:05:26.810Z,94.80
2023-03-17T10:08:28.863Z,94.80
2023-03-17T10:11:01.808Z,94.40
2023-03-17T10:13:55.080Z,94.60
2023-03-17T10:16:26.637Z,94.10
2023-03-17T10:19:04.447Z,94.50
2023-03-17T10:21:34.309Z,94.10
2023-03-17T10:24:04.145Z,93.90
2023-03-17T10:26:41.841Z,94.00
2023-03-17T10:29:15.851Z,93.80
2023-03-17T10:31:42.501Z,93.50
2023-03-17T10:34:17.204Z,93.70
2023-03-17T10:36:48.607Z,93.70
2023-03-17T10:39:19.583Z,93.80
2023-03-17T10:41:57.037Z,93.70
2023-03-17T10:44:38.501Z,94.00
2023-03-17T10:47:05.332Z,94.00
2023-03-17T10:49:36.776Z,93.60
2023-03-17T10:52:07.899Z,93.30
2023-03-17T10:54:37.004Z,93.20
2023-03-17T10:57:08.145Z,93.20
2023-03-17T10:59:44.510Z,93.10
2023-03-17T11:02:20.294Z,93.00
2023-03-17T11:04:47.137Z,92.60
2023-03-17T11:07:20.229Z,92.40
2023-03-17T11:09:51.474Z,92.30
2023-03-17T11:12:38.450Z,93.60
2023-03-17T11:15:10.803Z,93.00
2023-03-17T11:17:57.782Z,92.30
2023-03-17T11:20:49.406Z,94.40
2023-03-17T11:23:27.796Z,92.00
2023-03-17T11:26:40.403Z,91.00
2023-03-17T11:29:25.569Z,91.00
2023-03-17T11:32:01.671Z,90.80
2023-03-17T11:34:52.167Z,90.50
2023-03-17T11:37:52.641Z,91.80
2023-03-17T11:40:34.636Z,91.40
2023-03-17T11:43:25.190Z,91.00
2023-03-17T11:46:02.393Z,91.40
2023-03-17T11:48:56.654Z,90.70
2023-03-17T11:51:32.104Z,91.20
2023-03-17T11:54:31.040Z,90.90
2023-03-17T11:57:02.977Z,90.90
2023-03-17T11:59:57.011Z,91.30
2023-03-17T12:02:38.494Z,91.50
2023-03-17T12:05:15.534Z,91.00
2023-03-17T12:07:59.058Z,89.40
2023-03-17T12:10:41.863Z,89.20
2023-03-17T12:13:14.921Z,90.20
2023-03-17T12:15:47.201Z,87.50
2023-03-17T12:18:32.609Z,86.30
2023-03-17T12:21:20.838Z,86.60
2023-03-17T12:24:08.382Z,87.40
2023-03-17T12:26:39.361Z,86.00
2023-03-17T12:29:14.856Z,86.00
2023-03-17T12:31:50.484Z,85.10
2023-03-17T12:34:41.860Z,84.50
2023-03-17T12:37:09.700Z,84.60
2023-03-17T12:39:37.508Z,84.90
2023-03-17T12:42:46.980Z,84.50
2023-03-17T12:45:30.434Z,82.60
2023-03-17T12:48:18.907Z,84.10
2023-03-17T12:51:06.560Z,84.30
2023-03-17T12:53:48.759Z,84.10
2023-03-17T12:56:22.480Z,83.60
2023-03-17T12:58:51.717Z,84.10
2023-03-17T13:01:32.328Z,83.60
2023-03-17T13:04:17.763Z,82.80
2023-03-17T13:07:08.976Z,82.60
2023-03-17T13:09:43.865Z,81.90
2023-03-17T13:12:44.520Z,82.20
2023-03-17T13:15:48.100Z,81.50
2023-03-17T13:18:15.334Z,82.30
2023-03-17T13:20:56.416Z,81.30
2023-03-17T13:23:45.946Z,83.40
2023-03-17T13:26:20.843Z,81.90
2023-03-17T13:28:50.192Z,81.10
2023-03-17T13:31:36.918Z,81.40
2023-03-17T13:34:06.441Z,80.60
2023-03-17T13:36:40.006Z,80.70
2023-03-17T13:39:19.326Z,81.10
2023-03-17T13:41:51.814Z,81.30
2023-03-17T13:44:38.437Z,81.40
2023-03-17T13:47:23.690Z,81.70
2023-03-17T13:49:52.864Z,80.70
2023-03-17T13:52:56.683Z,81.20
2023-03-17T13:55:26.139Z,80.10
2023-03-17T13:58:10.847Z,80.20
2023-03-17T14:00:40.588Z,81.10
2023-03-17T14:03:38.354Z,81.00
2023-03-17T14:06:08.174Z,81.60
2023-03-17T14:08:43.561Z,80.90
2023-03-17T14:11:31.698Z,80.40
2023-03-17T14:14:32.630Z,80.50
2023-03-17T14:17:27.869Z,79.30
2023-03-17T14:20:27.250Z,79.60
2023-03-17T14:22:58.969Z,79.90
2023-03-17T14:25:37.535Z,81.10
2023-03-17T14:28:09.326Z,80.40
2023-03-17T14:30:38.152Z,80.30
2023-03-17T14:33:21.523Z,80.20
2023-03-17T14:35:51.393Z,79.70
2023-03-17T14:38:25.330Z,79.50
2023-03-17T14:41:04.335Z,78.90
2023-03-17T14:43:32.780Z,78.80
2023-03-17T14:46:01.400Z,78.20
2023-03-17T14:48:33.972Z,77.60
2023-03-17T14:51:06.814Z,77.10
2023-03-17T14:53:34.794Z,77.20
2023-03-17T14:56:01.933Z,76.90
2023-03-17T14:58:42.469Z,75.80
2023-03-17T15:01:17.100Z,75.50
2023-03-17T15:03:57.897Z,75.40
2023-03-17T15:06:27.882Z,74.80
2023-03-17T15:08:57.166Z,75.50
2023-03-17T15:11:40.576Z,75.70
2023-03-17T15:14:36.905Z,75.90
2023-03-17T15:17:06.430Z,76.70
2023-03-17T15:19:40.922Z,77.30
2023-03-17T15:22:43.959Z,78.00
2023-03-17T15:25:41.985Z,78.10
2023-03-17T15:28:13.747Z,78.30
2023-03-17T15:30:47.968Z,78.30
2023-03-17T15:33:22.358Z,78.50
2023-03-17T15:35:50.263Z,79.00
2023-03-17T15:38:17.156Z,79.00
2023-03-17T15:40:43.828Z,79.50
2023-03-17T15:43:18.450Z,80.00
2023-03-17T15:45:45.291Z,80.30
2023-03-17T15:48:20.415Z,80.30
2023-03-17T15:50:49.054Z,79.90
2023-03-17T15:53:15.899Z,80.20
2023-03-17T15:55:42.753Z,80.30
2023-03-17T15:58:09.404Z,80.30
2023-03-17T16:00:36.710Z,80.60
2023-03-17T16:03:16.977Z,80.50
2023-03-17T16:05:43.621Z,80.10
2023-03-17T16:08:19.372Z,80.40
2023-03-17T16:10:46.809Z,80.40
2023-03-17T16:13:13.541Z,80.50
2023-03-17T16:15:42.774Z,80.50
2023-03-17T16:18:19.191Z,80.70
2023-03-17T16:20:49.187Z,80.90
2023-03-17T16:23:21.905Z,80.80
2023-03-17T16:25:49.441Z,82.60
2023-03-17T16:28:17.513Z,81.50
2023-03-17T16:30:46.045Z,81.90
2023-03-17T16:33:16.069Z,81.20
2023-03-17T16:35:43.519Z,81.40
2023-03-17T16:38:13.182Z,81.60
2023-03-17T16:40:40.494Z,82.50
2023-03-17T16:43:25.900Z,82.20
2023-03-17T16:45:55.353Z,82.50
2023-03-17T16:48:21.980Z,82.50
2023-03-17T16:50:49.182Z,82.20
2023-03-17T16:53:15.838Z,82.80
2023-03-17T16:55:43.606Z,82.50
2023-03-17T16:58:25.635Z,82.80
2023-03-17T17:00:57.006Z,82.70
2023-03-17T17:03:23.658Z,82.90
2023-03-17T17:05:50.584Z,83.20
2023-03-17T17:08:17.202Z,82.70
2023-03-17T17:10:43.793Z,82.90
2023-03-17T17:13:12.245Z,83.00
2023-03-17T17:15:40.060Z,82.90
2023-03-17T17:18:27.040Z,83.50
2023-03-17T17:20:55.097Z,83.60
2023-03-17T17:23:26.455Z,83.90
2023-03-17T17:25:53.821Z,83.90
2023-03-17T17:28:22.435Z,84.80
2023-03-17T17:30:50.664Z,84.60
2023-03-17T17:33:18.282Z,84.00
2023-03-17T17:35:45.942Z,84.40
2023-03-17T17:38:27.371Z,84.60
2023-03-17T17:40:56.668Z,83.70
2023-03-17T17:43:24.784Z,84.30
2023-03-17T17:45:52.368Z,84.50
2023-03-17T17:48:22.524Z,85.70
2023-03-17T17:50:49.821Z,85.20
2023-03-17T17:53:17.948Z,85.50
2023-03-17T17:55:47.399Z,85.80
2023-03-17T17:58:22.112Z,85.70
2023-03-17T18:00:49.103Z,85.80
2023-03-17T18:03:15.998Z,86.00
2023-03-17T18:05:43.067Z,86.40
2023-03-17T18:08:14.520Z,86.60
2023-03-17T18:10:41.534Z,86.80
2023-03-17T18:13:09.601Z,86.80
2023-03-17T18:15:36.322Z,87.00
2023-03-17T18:18:04.235Z,86.90
2023-03-17T18:20:31.615Z,87.30
2023-03-17T18:22:58.452Z,87.10
2023-03-17T18:25:27.182Z,86.80
2023-03-17T18:27:54.785Z,88.00
2023-03-17T18:30:27.412Z,88.20
2023-03-17T18:32:58.284Z,88.10
2023-03-17T18:35:27.200Z,88.40
2023-03-17T18:37:55.327Z,88.40
2023-03-17T18:40:21.902Z,88.70
2023-03-17T18:42:48.580Z,88.80
2023-03-17T18:45:16.009Z,89.10
2023-03-17T18:47:42.907Z,89.10
2023-03-17T18:50:13.218Z,88.00
2023-03-17T18:52:41.714Z,89.80
2023-03-17T18:55:09.361Z,90.00
2023-03-17T18:57:36.785Z,90.10
2023-03-17T19:00:05.067Z,90.30
2023-03-17T19:02:31.671Z,90.10
2023-03-17T19:04:58.494Z,90.20
2023-03-17T19:07:25.365Z,90.30
2023-03-17T19:09:52.228Z,90.40
2023-03-17T19:12:18.899Z,90.50
2023-03-17T19:14:45.607Z,90.70
2023-03-17T19:17:12.228Z,90.90
2023-03-17T19:19:39.139Z,91.10
2023-03-17T19:22:06.303Z,91.10
2023-03-17T19:24:35.479Z,91.40
2023-03-17T19:27:02.428Z,91.50
2023-03-17T19:29:29.152Z,91.40
2023-03-17T19:31:55.849Z,91.50
2023-03-17T19:34:23.215Z,91.90
2023-03-17T19:36:49.993Z,92.00
2023-03-17T19:39:16.973Z,91.90
2023-03-17T19:41:43.609Z,92.00
2023-03-17T19:44:10.877Z,92.20
2023-03-17T19:46:38.187Z,92.30
2023-03-17T19:49:05.352Z,92.40
2023-03-17T19:51:33.063Z,92.60
2023-03-17T19:54:00.198Z,93.40
2023-03-17T19:56:27.783Z,93.20
2023-03-17T19:58:55.009Z,93.40
2023-03-17T20:01:22.783Z,93.40
2023-03-17T20:03:49.616Z,94.10
2023-03-17T20:06:16.788Z,94.40
2023-03-17T20:08:43.805Z,94.70
2023-03-17T20:11:12.332Z,95.00
2023-03-17T20:13:39.697Z,95.10
2023-03-17T20:16:07.235Z,95.40
2023-03-17T20:18:34.274Z,95.60
2023-03-17T20:21:05.335Z,95.80
2023-03-17T20:23:32.502Z,96.00
2023-03-17T20:25:59.067Z,96.10
2023-03-17T20:28:25.697Z,96.20
2023-03-17T20:30:52.617Z,96.30
2023-03-17T20:33:19.482Z,96.30
2023-03-17T20:35:47.341Z,96.50
2023-03-17T20:38:14.743Z,96.60
2023-03-17T20:40:41.981Z,96.60
2023-03-17T20:43:09.382Z,96.80
2023-03-17T20:45:36.922Z,96.90
2023-03-17T20:48:06.111Z,96.90
2023-03-17T20:50:34.307Z,96.90
2023-03-17T20:53:01.610Z,97.10
2023-03-17T20:55:28.768Z,97.20
2023-03-17T20:57:58.616Z,97.20
2023-03-17T21:00:26.132Z,97.30
2023-03-17T21:02:53.083Z,97.40
2023-03-17T21:05:23.236Z,97.70
2023-03-17T21:07:50.563Z,97.70
2023-03-17T21:10:17.891Z,98.00
2023-03-17T21:12:46.426Z,98.10
2023-03-17T21:15:14.081Z,98.40
2023-03-17T21:17:42.210Z,98.30
2023-03-17T21:20:13.417Z,98.30
2023-03-17T21:22:40.871Z,99.30
2023-03-17T21:25:09.036Z,98.60
2023-03-17T21:27:39.753Z,98.60
2023-03-17T21:30:09.674Z,98.60
2023-03-17T21:32:36.344Z,98.80
2023-03-17T21:35:03.665Z,98.80
2023-03-17T21:37:30.344Z,98.70
2023-03-17T21:39:56.982Z,98.70
2023-03-17T21:42:24.707Z,98.70
2023-03-17T21:44:52.340Z,98.80
2023-03-17T21:47:19.873Z,98.70
2023-03-17T21:49:46.857Z,99.00
2023-03-17T21:52:14.955Z,99.00
2023-03-17T21:54:42.272Z,99.20
2023-03-17T21:57:12.046Z,99.20
2023-03-17T21:59:40.039Z,99.20
2023-03-17T22:02:06.734Z,99.10
2023-03-17T22:04:33.381Z,99.00
2023-03-17T22:06:59.967Z,99.00
2023-03-17T22:09:26.691Z,98.90
2023-03-17T22:11:53.429Z,99.20
2023-03-17T22:14:20.660Z,99.10
2023-03-17T22:16:48.787Z,99.30
2023-03-17T22:19:16.920Z,99.20
2023-03-17T22:21:44.525Z,99.30
2023-03-17T22:24:11.782Z,99.40
2023-03-17T22:26:38.387Z,99.40
2023-03-17T22:29:05.455Z,99.40
2023-03-17T22:31:32.385Z,99.40
2023-03-17T22:33:59.632Z,99.20
2023-03-17T22:36:27.185Z,99.30
2023-03-17T22:38:54.380Z,99.50
2023-03-17T22:41:23.842Z,99.50
2023-03-17T22:43:50.790Z,99.40
2023-03-17T22:46:18.463Z,99.40
2023-03-17T22:48:46.281Z,99.60
2023-03-17T22:51:24.086Z,99.60
2023-03-17T22:53:51.774Z,99.80
2023-03-17T22:56:19.130Z,99.80
2023-03-17T22:58:46.854Z,99.70
2023-03-17T23:01:16.466Z,99.90
2023-03-17T23:03:44.271Z,99.90
2023-03-17T23:06:13.082Z,99.90
2023-03-17T23:08:41.107Z,99.90
2023-03-17T23:11:21.125Z,99.90
2023-03-17T23:13:48.311Z,99.90
2023-03-17T23:16:15.552Z,99.90
2023-03-17T23:18:45.458Z,99.90
2023-03-17T23:21:28.849Z,99.90
2023-03-17T23:23:55.688Z,99.90
2023-03-17T23:26:22.786Z,99.90
2023-03-17T23:28:49.729Z,99.90
2023-03-17T23:31:19.242Z,99.90
2023-03-17T23:33:47.311Z,99.90
2023-03-17T23:36:14.573Z,99.90
2023-03-17T23:38:42.573Z,99.90
2023-03-17T23:41:10.103Z,99.90
2023-03-17T23:43:37.511Z,99.90
2023-03-17T23:46:05.159Z,99.90
2023-03-17T23:48:32.646Z,99.90
2023-03-17T23:50:59.325Z,99.90
2023-03-17T23:53:26.503Z,99.90
2023-03-17T23:55:54.406Z,99.90
2023-03-17T23:58:22.498Z,99.90
